createdAt,value
2022-07-28T00:00:54.677Z,1005.2771
2022-07-28T00:02:01.588Z,1005.287476
2022-07-28T00:02:54.026Z,1005.252563
2022-07-28T00:03:55.622Z,1005.244507
2022-07-28T00:04:50.096Z,1005.262939
2022-07-28T00:05:52.529Z,1005.225952
2022-07-28T00:06:46.814Z,1005.242188
2022-07-28T00:07:46.976Z,1005.236328
2022-07-28T00:08:49.189Z,1005.286072
2022-07-28T00:09:50.187Z,1005.210632
2022-07-28T00:11:25.216Z,1005.223877
2022-07-28T00:13:27.898Z,1005.216736
2022-07-28T00:14:26.238Z,1005.209839
2022-07-28T00:16:09.972Z,1005.179688
2022-07-28T00:16:49.381Z,1005.194702
2022-07-28T00:17:48.606Z,1005.164368
2022-07-28T00:18:50.203Z,1005.183838
2022-07-28T00:19:46.361Z,1005.190796
2022-07-28T00:20:45.526Z,1005.19397
2022-07-28T00:22:41.083Z,1005.172668
2022-07-28T00:23:39.400Z,1005.160645
2022-07-28T00:24:39.331Z,1005.177795
2022-07-28T00:25:39.174Z,1005.163757
2022-07-28T00:26:38.726Z,1005.184509
2022-07-28T00:28:39.851Z,1005.107666
2022-07-28T00:29:49.256Z,1005.15741
2022-07-28T00:29:50.226Z,1005.15741
2022-07-28T00:29:50.989Z,1005.15741
2022-07-28T00:30:36.416Z,1005.093811
2022-07-28T00:31:38.542Z,1005.203735
2022-07-28T00:32:30.070Z,1005.158813
2022-07-28T00:33:29.146Z,1005.115967
2022-07-28T00:34:26.623Z,1005.179504
2022-07-28T00:35:30.298Z,1005.108643
2022-07-28T00:35:30.964Z,1005.108643
2022-07-28T00:36:24.726Z,1005.135315
2022-07-28T00:37:17.838Z,1005.132996
2022-07-28T00:38:17.007Z,1005.079712
2022-07-28T00:39:13.660Z,1005.094543
2022-07-28T00:40:13.224Z,1005.104858
2022-07-28T00:41:14.981Z,1005.12561
2022-07-28T00:42:15.661Z,1005.090942
2022-07-28T00:43:11.031Z,1005.105774
2022-07-28T00:44:14.249Z,1005.126587
2022-07-28T00:45:16.259Z,1005.19458
2022-07-28T00:46:08.140Z,1005.114685
2022-07-28T00:47:09.306Z,1005.016235
2022-07-28T00:48:01.921Z,1005.079834
2022-07-28T00:49:01.640Z,1005.09021
2022-07-28T00:49:57.043Z,1005.068054
2022-07-28T00:51:00.287Z,1005.051819
2022-07-28T00:52:55.870Z,1005.01123
2022-07-28T00:53:55.791Z,1004.994995
2022-07-28T00:54:54.191Z,1005.023743
2022-07-28T00:56:05.483Z,1005.017822
2022-07-28T00:56:05.996Z,1005.017822
2022-07-28T00:56:06.085Z,1005.017822
2022-07-28T00:56:51.457Z,1005.076904
2022-07-28T00:57:47.571Z,1005.006897
2022-07-28T00:58:45.673Z,1004.955688
2022-07-28T00:59:49.409Z,1005.000916
2022-07-28T01:01:15.035Z,1004.901001
2022-07-28T01:01:55.565Z,1004.945313
2022-07-28T01:02:56.757Z,1004.884216
2022-07-28T01:03:56.449Z,1004.910767
2022-07-28T01:04:57.395Z,1004.933594
2022-07-28T01:06:00.702Z,1004.954224
2022-07-28T01:07:57.828Z,1004.907837
2022-07-28T01:08:56.954Z,1004.875305
2022-07-28T01:09:57.358Z,1004.914368
2022-07-28T01:10:52.456Z,1004.892212
2022-07-28T01:11:55.368Z,1004.863525
2022-07-28T01:12:52.340Z,1004.932983
2022-07-28T01:13:52.710Z,1004.908447
2022-07-28T01:14:49.014Z,1004.929077
2022-07-28T01:15:51.181Z,1004.867981
2022-07-28T01:17:52.665Z,1004.923279
2022-07-28T01:18:48.886Z,1004.888611
2022-07-28T01:19:51.731Z,1004.792603
2022-07-28T01:20:48.022Z,1004.808899
2022-07-28T01:22:43.042Z,1004.839844
2022-07-28T01:23:53.147Z,1004.86853
2022-07-28T01:24:55.856Z,1004.870911
2022-07-28T01:25:49.987Z,1004.844299
2022-07-28T01:27:49.581Z,1004.903442
2022-07-28T01:28:51.836Z,1004.901855
2022-07-28T01:29:46.027Z,1004.867004
2022-07-28T01:30:47.890Z,1004.928528
2022-07-28T01:31:40.699Z,1004.835938
2022-07-28T01:32:45.250Z,1004.878906
2022-07-28T01:33:45.315Z,1004.846436
2022-07-28T01:34:42.143Z,1004.875305
2022-07-28T01:35:49.571Z,1004.85907
2022-07-28T01:36:40.010Z,1004.856689
2022-07-28T01:38:39.534Z,1004.870911
2022-07-28T01:39:35.412Z,1004.846436
2022-07-28T01:40:35.961Z,1004.901855
2022-07-28T01:42:06.585Z,1004.848755
2022-07-28T01:42:47.556Z,1004.854614
2022-07-28T01:43:53.232Z,1004.909363
2022-07-28T01:44:50.715Z,1004.770386
2022-07-28T01:45:51.172Z,1004.844299
2022-07-28T01:48:08.360Z,1004.838379
2022-07-28T01:48:48.422Z,1004.838379
2022-07-28T01:49:50.333Z,1004.819702
2022-07-28T01:50:51.882Z,1004.793152
2022-07-28T01:51:47.142Z,1004.785156
2022-07-28T01:52:47.894Z,1004.770935
2022-07-28T01:53:44.261Z,1004.748779
2022-07-28T01:54:44.102Z,1004.802002
2022-07-28T01:55:46.913Z,1004.808777
2022-07-28T01:57:43.503Z,1004.819092
2022-07-28T01:58:48.346Z,1004.804871
2022-07-28T01:59:43.668Z,1004.772339
2022-07-28T02:00:46.657Z,1004.772339
2022-07-28T02:02:45.171Z,1004.767944
2022-07-28T02:03:41.424Z,1004.717163
2022-07-28T02:04:49.153Z,1004.647644
2022-07-28T02:05:45.462Z,1004.764404
2022-07-28T02:06:45.066Z,1004.711243
2022-07-28T02:07:44.234Z,1004.680786
2022-07-28T02:08:43.342Z,1004.69342
2022-07-28T02:09:39.664Z,1004.6875
2022-07-28T02:10:42.599Z,1004.703735
2022-07-28T02:11:40.299Z,1004.697021
2022-07-28T02:12:36.516Z,1004.606873
2022-07-28T02:13:38.703Z,1004.600952
2022-07-28T02:14:31.294Z,1004.584717
2022-07-28T02:15:36.504Z,1004.587036
2022-07-28T02:16:29.168Z,1004.562805
2022-07-28T02:17:27.393Z,1004.522034
2022-07-28T02:18:31.610Z,1004.599976
2022-07-28T02:19:33.562Z,1004.545166
2022-07-28T02:20:26.207Z,1004.592529
2022-07-28T02:21:23.387Z,1004.594788
2022-07-28T02:23:19.600Z,1004.629395
2022-07-28T02:24:19.031Z,1004.570251
2022-07-28T02:25:22.038Z,1004.625793
2022-07-28T02:26:24.627Z,1004.625793
2022-07-28T02:28:42.546Z,1004.529663
2022-07-28T02:29:50.671Z,1004.505127
2022-07-28T02:29:50.863Z,1004.505127
2022-07-28T02:29:51.821Z,1004.505127
2022-07-28T02:30:34.430Z,1004.482483
2022-07-28T02:32:49.207Z,1004.488464
2022-07-28T02:33:59.143Z,1004.474243
2022-07-28T02:33:59.352Z,1004.474243
2022-07-28T02:34:00.370Z,1004.474243
2022-07-28T02:34:46.748Z,1004.488464
2022-07-28T02:35:43.031Z,1004.486084
2022-07-28T02:36:43.719Z,1004.441223
2022-07-28T02:38:43.489Z,1004.486084
2022-07-28T02:39:38.811Z,1004.488464
2022-07-28T02:40:38.793Z,1004.457947
2022-07-28T02:41:36.775Z,1004.505127
2022-07-28T02:43:49.631Z,1004.431396
2022-07-28T02:43:49.679Z,1004.431396
2022-07-28T02:44:41.470Z,1004.463928
2022-07-28T02:45:41.836Z,1004.373901
2022-07-28T02:46:38.346Z,1004.419067
2022-07-28T02:48:39.624Z,1004.409973
2022-07-28T02:49:39.712Z,1004.38385
2022-07-28T02:50:35.602Z,1004.447266
2022-07-28T02:51:37.780Z,1004.371887
2022-07-28T02:52:36.120Z,1004.382202
2022-07-28T02:53:45.431Z,1004.325439
2022-07-28T02:54:40.754Z,1004.380615
2022-07-28T02:55:38.244Z,1004.36438
2022-07-28T02:56:37.956Z,1004.362366
2022-07-28T02:57:36.772Z,1004.460327
2022-07-28T02:58:33.317Z,1004.393311
2022-07-28T02:59:41.512Z,1004.430176
2022-07-28T03:00:34.423Z,1004.35907
2022-07-28T03:01:39.461Z,1004.338501
2022-07-28T03:03:46.806Z,1004.355164
2022-07-28T03:04:47.173Z,1004.414856
2022-07-28T03:06:41.526Z,1004.443115
2022-07-28T03:07:24.735Z,1004.319946
2022-07-28T03:08:33.067Z,1004.418213
2022-07-28T03:09:35.952Z,1004.377319
2022-07-28T03:10:32.975Z,1004.384033
2022-07-28T03:11:28.626Z,1004.516785
2022-07-28T03:13:27.731Z,1004.486267
2022-07-28T03:14:24.956Z,1004.506897
2022-07-28T03:15:28.518Z,1004.486938
2022-07-28T03:16:23.882Z,1004.464661
2022-07-28T03:17:23.022Z,1004.543762
2022-07-28T03:18:24.309Z,1004.43158
2022-07-28T03:19:20.982Z,1004.488892
2022-07-28T03:20:17.869Z,1004.472656
2022-07-28T03:21:23.496Z,1004.454712
2022-07-28T03:23:20.588Z,1004.415833
2022-07-28T03:24:23.130Z,1004.411865
2022-07-28T03:25:24.784Z,1004.416199
2022-07-28T03:26:20.979Z,1004.414246
2022-07-28T03:28:17.770Z,1004.40155
2022-07-28T03:29:16.732Z,1004.44873
2022-07-28T03:30:20.539Z,1004.424438
2022-07-28T03:31:20.577Z,1004.426514
2022-07-28T03:33:23.193Z,1004.410156
2022-07-28T03:34:23.590Z,1004.399841
2022-07-28T03:35:19.311Z,1004.439087
2022-07-28T03:36:17.477Z,1004.459595
2022-07-28T03:37:18.504Z,1004.502441
2022-07-28T03:38:12.733Z,1004.483826
2022-07-28T03:39:15.009Z,1004.483826
2022-07-28T03:40:07.355Z,1004.571716
2022-07-28T03:41:09.910Z,1004.545227
2022-07-28T03:43:07.045Z,1004.516418
2022-07-28T03:44:01.785Z,1004.542969
2022-07-28T03:44:57.933Z,1004.508423
2022-07-28T03:46:22.246Z,1004.516418
2022-07-28T03:48:04.359Z,1004.55127
2022-07-28T03:49:00.733Z,1004.508423
2022-07-28T03:50:02.693Z,1004.508423
2022-07-28T03:50:58.101Z,1004.496399
2022-07-28T03:51:59.800Z,1004.457336
2022-07-28T03:52:55.155Z,1004.534973
2022-07-28T03:54:02.814Z,1004.514709
2022-07-28T03:54:57.195Z,1004.54126
2022-07-28T03:55:55.877Z,1004.549561
2022-07-28T03:58:00.661Z,1004.488098
2022-07-28T03:58:55.779Z,1004.498413
2022-07-28T03:59:58.324Z,1004.500732
2022-07-28T04:00:52.027Z,1004.474121
2022-07-28T04:02:48.723Z,1004.496399
2022-07-28T04:03:48.097Z,1004.492371
2022-07-28T04:04:53.675Z,1004.517212
2022-07-28T04:05:48.995Z,1004.503296
2022-07-28T04:07:49.346Z,1004.476746
2022-07-28T04:08:45.038Z,1004.372498
2022-07-28T04:09:51.109Z,1004.427795
2022-07-28T04:10:46.204Z,1004.444153
2022-07-28T04:11:50.984Z,1004.405029
2022-07-28T04:12:50.929Z,1004.419556
2022-07-28T04:13:56.244Z,1004.452637
2022-07-28T04:14:57.064Z,1004.379211
2022-07-28T04:15:57.975Z,1004.379456
2022-07-28T04:18:03.507Z,1004.358887
2022-07-28T04:18:56.228Z,1004.360962
2022-07-28T04:19:57.154Z,1004.403748
2022-07-28T04:21:41.482Z,1004.34845
2022-07-28T04:22:22.591Z,1004.388733
2022-07-28T04:23:21.669Z,1004.298889
2022-07-28T04:24:22.023Z,1004.337952
2022-07-28T04:25:22.166Z,1004.374756
2022-07-28T04:26:24.295Z,1004.38501
2022-07-28T04:28:26.349Z,1004.35022
2022-07-28T04:29:23.260Z,1004.421875
2022-07-28T04:30:18.170Z,1004.360474
2022-07-28T04:31:20.311Z,1004.323669
2022-07-28T04:33:26.273Z,1004.38501
2022-07-28T04:34:22.158Z,1004.376709
2022-07-28T04:35:21.338Z,1004.41156
2022-07-28T04:36:17.380Z,1004.38501
2022-07-28T04:37:16.357Z,1004.305481
2022-07-28T04:38:11.768Z,1004.252319
2022-07-28T04:39:10.970Z,1004.340027
2022-07-28T04:40:06.952Z,1004.409302
2022-07-28T04:41:05.762Z,1004.362793
2022-07-28T04:42:01.172Z,1004.427795
2022-07-28T04:43:02.651Z,1004.407593
2022-07-28T04:43:55.202Z,1004.474915
2022-07-28T04:44:58.447Z,1004.415833
2022-07-28T04:45:53.871Z,1004.460632
2022-07-28T04:46:49.983Z,1004.409302
2022-07-28T04:47:46.809Z,1004.486938
2022-07-28T04:48:49.514Z,1004.486938
2022-07-28T04:49:45.296Z,1004.447815
2022-07-28T04:50:47.835Z,1004.456116
2022-07-28T04:51:40.342Z,1004.488647
2022-07-28T04:53:37.264Z,1004.551514
2022-07-28T04:54:40.176Z,1004.604553
2022-07-28T04:56:06.827Z,1004.530945
2022-07-28T04:56:46.928Z,1004.436707
2022-07-28T04:58:43.063Z,1004.4776
2022-07-28T04:59:40.269Z,1004.53064
2022-07-28T05:00:40.488Z,1004.514404
2022-07-28T05:01:35.828Z,1004.424683
2022-07-28T05:03:36.413Z,1004.500732
2022-07-28T05:04:30.345Z,1004.510925
2022-07-28T05:05:28.998Z,1004.49469
2022-07-28T05:06:28.835Z,1004.486389
2022-07-28T05:08:27.630Z,1004.500732
2022-07-28T05:09:20.127Z,1004.455627
2022-07-28T05:10:17.657Z,1004.461548
2022-07-28T05:11:16.746Z,1004.471863
2022-07-28T05:13:16.867Z,1004.449402
2022-07-28T05:14:23.610Z,1004.439087
2022-07-28T05:15:18.933Z,1004.452942
2022-07-28T05:16:18.373Z,1004.487793
2022-07-28T05:17:13.705Z,1004.479248
2022-07-28T05:18:18.338Z,1004.428101
2022-07-28T05:19:21.910Z,1004.487183
2022-07-28T05:20:16.194Z,1004.464661
2022-07-28T05:21:22.422Z,1004.43811
2022-07-28T05:22:14.495Z,1004.506897
2022-07-28T05:23:14.704Z,1004.462036
2022-07-28T05:24:09.948Z,1004.472351
2022-07-28T05:25:09.463Z,1004.517212
2022-07-28T05:26:05.625Z,1004.445801
2022-07-28T05:28:02.624Z,1004.496582
2022-07-28T05:29:02.440Z,1004.486267
2022-07-28T05:29:57.150Z,1004.486267
2022-07-28T05:30:58.195Z,1004.476013
2022-07-28T05:32:57.770Z,1004.45343
2022-07-28T05:33:51.287Z,1004.492249
2022-07-28T05:34:50.797Z,1004.347473
2022-07-28T05:35:45.988Z,1004.486267
2022-07-28T05:36:47.995Z,1004.437195
2022-07-28T05:39:42.898Z,1004.39093
2022-07-28T05:40:24.555Z,1004.398438
2022-07-28T05:41:23.823Z,1004.416382
2022-07-28T05:43:25.149Z,1004.449585
2022-07-28T05:44:26.374Z,1004.414795
2022-07-28T05:45:25.417Z,1004.377869
2022-07-28T05:46:26.436Z,1004.40448
2022-07-28T05:47:26.720Z,1004.395752
2022-07-28T05:48:27.888Z,1004.404053
2022-07-28T05:49:24.326Z,1004.334595
2022-07-28T05:50:27.996Z,1004.355225
2022-07-28T05:51:22.210Z,1004.373535
2022-07-28T05:52:24.012Z,1004.340576
2022-07-28T05:53:20.567Z,1004.358887
2022-07-28T05:54:22.155Z,1004.401733
2022-07-28T05:55:18.528Z,1004.369141
2022-07-28T05:56:20.234Z,1004.369141
2022-07-28T05:57:16.790Z,1004.370789
2022-07-28T05:58:18.179Z,1004.309631
2022-07-28T05:59:14.594Z,1004.315552
2022-07-28T06:00:18.816Z,1004.358337
2022-07-28T06:01:13.032Z,1004.289001
2022-07-28T06:03:11.628Z,1004.356079
2022-07-28T06:04:26.889Z,1004.366394
2022-07-28T06:04:27.921Z,1004.366394
2022-07-28T06:04:28.574Z,1004.366394
2022-07-28T06:05:14.687Z,1004.362061
2022-07-28T06:06:16.266Z,1004.410767
2022-07-28T06:06:16.954Z,1004.410767
2022-07-28T06:08:09.596Z,1004.314758
2022-07-28T06:08:46.802Z,1004.317139
2022-07-28T06:09:46.863Z,1004.362061
2022-07-28T06:10:43.368Z,1004.319153
2022-07-28T06:11:44.748Z,1004.352478
2022-07-28T06:13:40.297Z,1004.297729
2022-07-28T06:14:41.639Z,1004.36322
2022-07-28T06:16:18.643Z,1004.35083
2022-07-28T06:17:56.458Z,1004.351746
2022-07-28T06:18:55.649Z,1004.36438
2022-07-28T06:19:53.525Z,1004.319153
2022-07-28T06:20:48.838Z,1004.317139
2022-07-28T06:21:48.451Z,1004.304382
2022-07-28T06:23:43.462Z,1004.338501
2022-07-28T06:24:38.797Z,1004.264709
2022-07-28T06:25:38.753Z,1004.350342
2022-07-28T06:26:35.452Z,1004.303101
2022-07-28T06:27:37.937Z,1004.195007
2022-07-28T06:28:30.605Z,1004.270325
2022-07-28T06:29:33.473Z,1004.28186
2022-07-28T06:30:26.071Z,1004.277527
2022-07-28T06:31:26.135Z,1004.244385
2022-07-28T06:32:22.310Z,1004.25177
2022-07-28T06:33:21.527Z,1004.231079
2022-07-28T06:34:17.215Z,1004.308533
2022-07-28T06:35:17.284Z,1004.302551
2022-07-28T06:36:13.488Z,1004.330627
2022-07-28T06:38:10.892Z,1004.342529
2022-07-28T06:39:06.514Z,1004.399536
2022-07-28T06:40:05.832Z,1004.370483
2022-07-28T06:41:01.003Z,1004.37439
2022-07-28T06:41:58.498Z,1004.42749
2022-07-28T06:42:58.751Z,1004.464539
2022-07-28T06:43:54.658Z,1004.339355
2022-07-28T06:44:59.023Z,1004.41272
2022-07-28T06:44:59.878Z,1004.41272
2022-07-28T06:45:55.968Z,1004.375793
2022-07-28T06:46:49.032Z,1004.368896
2022-07-28T06:49:29.640Z,1004.346497
2022-07-28T06:50:24.863Z,1004.231018
2022-07-28T06:50:26.446Z,1004.231018
2022-07-28T06:51:11.303Z,1004.262756
2022-07-28T06:52:07.408Z,1004.318604
2022-07-28T06:53:07.484Z,1004.35321
2022-07-28T06:54:11.046Z,1004.375305
2022-07-28T06:55:03.130Z,1004.399841
2022-07-28T06:56:03.915Z,1004.43811
2022-07-28T06:57:01.650Z,1004.414917
2022-07-28T06:58:05.115Z,1004.407043
2022-07-28T06:58:58.486Z,1004.453613
2022-07-28T06:59:59.270Z,1004.406067
2022-07-28T07:00:55.564Z,1004.441101
2022-07-28T07:01:56.095Z,1004.420288
2022-07-28T07:02:52.224Z,1004.40741
2022-07-28T07:03:51.621Z,1004.34375
2022-07-28T07:04:53.535Z,1004.451538
2022-07-28T07:05:49.037Z,1004.385803
2022-07-28T07:06:48.110Z,1004.356689
2022-07-28T07:07:44.310Z,1004.409973
2022-07-28T07:08:45.053Z,1004.354553
2022-07-28T07:09:43.580Z,1004.381226
2022-07-28T07:10:39.734Z,1004.283752
2022-07-28T07:11:42.816Z,1004.295471
2022-07-28T07:13:37.139Z,1004.341736
2022-07-28T07:14:33.643Z,1004.342957
2022-07-28T07:15:35.257Z,1004.338379
2022-07-28T07:16:31.508Z,1004.388306
2022-07-28T07:17:32.606Z,1004.392883
2022-07-28T07:18:28.981Z,1004.468201
2022-07-28T07:19:32.465Z,1004.410339
2022-07-28T07:20:27.725Z,1004.350342
2022-07-28T07:21:28.498Z,1004.300293
2022-07-28T07:23:26.035Z,1004.325928
2022-07-28T07:24:22.755Z,1004.337524
2022-07-28T07:25:26.808Z,1004.256226
2022-07-28T07:26:21.102Z,1004.239014
2022-07-28T07:28:18.996Z,1004.255005
2022-07-28T07:29:20.593Z,1004.183228
2022-07-28T07:30:17.786Z,1004.202759
2022-07-28T07:31:21.875Z,1004.246704
2022-07-28T07:33:40.682Z,1004.241089
2022-07-28T07:34:21.105Z,1004.250183
2022-07-28T07:35:20.931Z,1004.174683
2022-07-28T07:36:21.222Z,1004.176697
2022-07-28T07:37:17.691Z,1004.268311
2022-07-28T07:38:19.033Z,1004.223755
2022-07-28T07:39:15.479Z,1004.115784
2022-07-28T07:40:17.011Z,1004.282654
2022-07-28T07:41:14.162Z,1004.190491
2022-07-28T07:42:15.053Z,1004.121704
2022-07-28T07:43:11.568Z,1004.20282
2022-07-28T07:44:16.164Z,1004.125793
2022-07-28T07:45:10.130Z,1004.132446
2022-07-28T07:46:11.787Z,1004.151184
2022-07-28T07:48:10.034Z,1004.123596
2022-07-28T07:49:07.719Z,1004.086426
2022-07-28T07:50:09.543Z,1004.180481
2022-07-28T07:51:15.030Z,1004.165466
2022-07-28T07:51:15.610Z,1004.165466
2022-07-28T07:53:08.004Z,1004.029297
2022-07-28T07:54:05.306Z,1004.137817
2022-07-28T07:55:06.559Z,1004.079529
2022-07-28T07:56:06.521Z,1004.091553
2022-07-28T07:58:05.665Z,1004.044617
2022-07-28T07:59:02.596Z,1004.162842
2022-07-28T08:00:07.069Z,1004.081116
2022-07-28T08:01:02.144Z,1004.022705
2022-07-28T08:02:03.501Z,1004.023438
2022-07-28T08:03:00.145Z,1003.960144
2022-07-28T08:04:01.926Z,1004.03772
2022-07-28T08:04:58.978Z,1004.013611
2022-07-28T08:06:00.825Z,1004.055847
2022-07-28T08:08:00.052Z,1004.005371
2022-07-28T08:08:57.142Z,1004.06781
2022-07-28T08:09:59.456Z,1004.017334
2022-07-28T08:10:56.691Z,1004.077209
2022-07-28T08:12:01.173Z,1004.029297
2022-07-28T08:14:00.469Z,1004.047729
2022-07-28T08:14:55.639Z,1003.981262
2022-07-28T08:16:00.231Z,1004.000488
2022-07-28T08:16:54.897Z,1004.016663
2022-07-28T08:17:57.044Z,1003.95874
2022-07-28T08:18:55.141Z,1003.994385
2022-07-28T08:19:56.653Z,1003.975464
2022-07-28T08:20:54.002Z,1003.978149
2022-07-28T08:21:56.289Z,1004.010498
2022-07-28T08:22:53.538Z,1004.024048
2022-07-28T08:23:55.788Z,1004.010498
2022-07-28T08:24:53.766Z,1004.032288
2022-07-28T08:25:58.274Z,1003.944275
2022-07-28T08:26:53.619Z,1003.996094
2022-07-28T08:29:36.585Z,1004.075317
2022-07-28T08:30:17.137Z,1004.017212
2022-07-28T08:30:23.174Z,1004.017212
2022-07-28T08:31:15.881Z,1004.087524
2022-07-28T08:32:16.727Z,1004.066223
2022-07-28T08:33:12.774Z,1004.082397
2022-07-28T08:34:26.386Z,1004.061157
2022-07-28T08:34:31.130Z,1004.061157
2022-07-28T08:35:32.412Z,1004.069458
2022-07-28T08:35:32.808Z,1004.069458
2022-07-28T08:35:33.049Z,1004.069458
2022-07-28T08:36:11.133Z,1004.045471
2022-07-28T08:37:07.692Z,1004.019226
2022-07-28T08:38:08.583Z,1004.014832
2022-07-28T08:39:05.278Z,1004.009399
2022-07-28T08:40:05.805Z,1003.907166
2022-07-28T08:41:02.003Z,1003.966431
2022-07-28T08:41:59.960Z,1003.947021
2022-07-28T08:43:00.588Z,1003.91156
2022-07-28T08:43:56.848Z,1003.876892
2022-07-28T08:44:57.045Z,1003.960022
2022-07-28T08:45:58.135Z,1003.947021
2022-07-28T08:45:58.744Z,1003.947021
2022-07-28T08:46:56.269Z,1003.909607
2022-07-28T08:48:50.827Z,1003.960754
2022-07-28T08:49:47.061Z,1003.923828
2022-07-28T08:50:45.598Z,1003.878418
2022-07-28T08:51:46.539Z,1003.913208
2022-07-28T08:53:43.554Z,1003.873413
2022-07-28T08:54:39.567Z,1003.913208
2022-07-28T08:55:42.923Z,1003.918762
2022-07-28T08:56:36.470Z,1003.847046
2022-07-28T08:58:35.514Z,1003.906555
2022-07-28T08:59:31.638Z,1003.932983
2022-07-28T09:00:34.817Z,1003.901001
2022-07-28T09:01:38.918Z,1003.841858
2022-07-28T09:01:38.946Z,1003.841858
2022-07-28T09:01:39.198Z,1003.841858
2022-07-28T09:03:33.356Z,1003.847839
2022-07-28T09:03:59.392Z,1003.917969
2022-07-28T09:05:00.463Z,1003.950623
2022-07-28T09:05:56.539Z,1003.894592
2022-07-28T09:06:56.805Z,1003.937195
2022-07-28T09:08:53.010Z,1003.869873
2022-07-28T09:09:48.696Z,1003.858826
2022-07-28T09:10:49.503Z,1003.872253
2022-07-28T09:11:45.115Z,1003.920288
2022-07-28T09:13:40.938Z,1003.762573
2022-07-28T09:14:41.677Z,1003.759827
2022-07-28T09:15:37.302Z,1003.789368
2022-07-28T09:16:37.833Z,1003.732361
2022-07-28T09:17:33.209Z,1003.718933
2022-07-28T09:18:33.659Z,1003.841858
2022-07-28T09:19:34.489Z,1003.747314
2022-07-28T09:20:29.976Z,1003.768616
2022-07-28T09:21:26.027Z,1003.78479
2022-07-28T09:23:42.158Z,1003.789856
2022-07-28T09:23:42.516Z,1003.789856
2022-07-28T09:23:43.342Z,1003.789856
2022-07-28T09:24:24.958Z,1003.76062
2022-07-28T09:25:18.279Z,1003.637329
2022-07-28T09:26:18.401Z,1003.685364
2022-07-28T09:28:14.168Z,1003.73584
2022-07-28T09:29:09.494Z,1003.772522
2022-07-28T09:30:09.735Z,1003.753967
2022-07-28T09:31:05.055Z,1003.764587
2022-07-28T09:32:03.063Z,1003.7453
2022-07-28T09:33:58.197Z,1003.756409
2022-07-28T09:34:58.431Z,1003.640869
2022-07-28T09:35:53.791Z,1003.654785
2022-07-28T09:36:56.644Z,1003.684998
2022-07-28T09:37:49.452Z,1003.612488
2022-07-28T09:38:52.339Z,1003.5672
2022-07-28T09:39:45.118Z,1003.669189
2022-07-28T09:40:48.170Z,1003.546265
2022-07-28T09:41:42.335Z,1003.565308
2022-07-28T09:43:37.351Z,1003.654236
2022-07-28T09:44:37.406Z,1003.536377
2022-07-28T09:45:35.503Z,1003.603149
2022-07-28T09:46:30.997Z,1003.560547
2022-07-28T09:48:26.483Z,1003.625183
2022-07-28T09:49:28.625Z,1003.504822
2022-07-28T09:51:06.463Z,1003.48938
2022-07-28T09:53:00.676Z,1003.50592
2022-07-28T09:53:41.128Z,1003.535767
2022-07-28T09:54:41.223Z,1003.506165
2022-07-28T09:55:39.713Z,1003.445007
2022-07-28T09:56:35.625Z,1003.47937
2022-07-28T09:58:33.631Z,1003.47876
2022-07-28T09:58:59.515Z,1003.522034
2022-07-28T09:59:57.429Z,1003.541809
2022-07-28T10:00:58.009Z,1003.549683
2022-07-28T10:01:53.620Z,1003.547058
2022-07-28T10:02:54.135Z,1003.506714
2022-07-28T10:03:49.438Z,1003.47998
2022-07-28T10:04:49.436Z,1003.576233
2022-07-28T10:05:44.916Z,1003.500732
2022-07-28T10:06:45.075Z,1003.535461
2022-07-28T10:07:40.352Z,1003.508606
2022-07-28T10:08:42.637Z,1003.551575
2022-07-28T10:09:35.253Z,1003.538208
2022-07-28T10:10:36.025Z,1003.554077
2022-07-28T10:11:31.296Z,1003.607666
2022-07-28T10:12:33.799Z,1003.535461
2022-07-28T10:13:26.746Z,1003.535156
2022-07-28T10:14:29.395Z,1003.419983
2022-07-28T10:15:31.182Z,1003.451965
2022-07-28T10:15:31.305Z,1003.451965
2022-07-28T10:16:20.604Z,1003.46814
2022-07-28T10:17:21.220Z,1003.465332
2022-07-28T10:18:16.634Z,1003.558838
2022-07-28T10:19:16.536Z,1003.489075
2022-07-28T10:20:11.752Z,1003.432739
2022-07-28T10:21:11.752Z,1003.491882
2022-07-28T10:22:07.156Z,1003.537476
2022-07-28T10:24:02.880Z,1003.47876
2022-07-28T10:25:02.853Z,1003.411743
2022-07-28T10:25:58.070Z,1003.36084
2022-07-28T10:26:58.164Z,1003.277649
2022-07-28T10:28:53.506Z,1003.36084
2022-07-28T10:29:48.730Z,1003.377014
2022-07-28T10:30:48.783Z,1003.414429
2022-07-28T10:31:44.261Z,1003.393127
2022-07-28T10:33:39.340Z,1003.385254
2022-07-28T10:34:42.134Z,1003.339539
2022-07-28T10:35:34.832Z,1003.315796
2022-07-28T10:35:51.015Z,1003.315796
2022-07-28T10:35:54.472Z,1003.315796
2022-07-28T10:36:35.671Z,1003.323669
2022-07-28T10:38:33.650Z,1003.329468
2022-07-28T10:39:26.379Z,1003.313599
2022-07-28T10:40:26.448Z,1003.294983
2022-07-28T10:41:21.723Z,1003.356567
2022-07-28T10:42:21.620Z,1003.329712
2022-07-28T10:43:18.267Z,1003.243774
2022-07-28T10:44:18.859Z,1003.211548
2022-07-28T10:46:04.472Z,1003.200806
2022-07-28T10:46:04.938Z,1003.200806
2022-07-28T10:46:05.549Z,1003.200806
2022-07-28T10:46:23.824Z,1003.21698
2022-07-28T10:48:25.599Z,1003.219971
2022-07-28T10:49:21.557Z,1003.303101
2022-07-28T10:50:17.300Z,1003.174194
2022-07-28T10:51:17.820Z,1003.24408
2022-07-28T10:53:12.291Z,1003.120911
2022-07-28T10:54:17.648Z,1003.169067
2022-07-28T10:54:18.933Z,1003.169067
2022-07-28T10:54:25.066Z,1003.169067
2022-07-28T10:55:13.745Z,1003.174561
2022-07-28T10:56:09.017Z,1003.220459
2022-07-28T10:57:09.169Z,1003.150696
2022-07-28T10:59:05.487Z,1003.172058
2022-07-28T11:00:12.140Z,1003.144775
2022-07-28T11:00:13.255Z,1003.144775
2022-07-28T11:00:14.317Z,1003.144775
2022-07-28T11:01:06.398Z,1003.155457
2022-07-28T11:02:01.261Z,1003.123413
2022-07-28T11:03:57.577Z,1003.134033
2022-07-28T11:04:53.064Z,1003.061584
2022-07-28T11:05:54.909Z,1003.053589
2022-07-28T11:06:50.444Z,1003.082947
2022-07-28T11:07:52.420Z,1003.077637
2022-07-28T11:08:48.015Z,1003.085938
2022-07-28T11:09:48.449Z,1003.043213
2022-07-28T11:10:45.220Z,1003.021851
2022-07-28T11:11:45.417Z,1003.129089
2022-07-28T11:12:41.274Z,1003.169067
2022-07-28T11:13:43.881Z,1003.056335
2022-07-28T11:14:38.110Z,1003.120911
2022-07-28T11:15:35.605Z,1003.054077
2022-07-28T11:16:39.370Z,1003.11322
2022-07-28T11:17:33.492Z,1003.110474
2022-07-28T11:18:33.017Z,1003.153442
2022-07-28T11:19:40.761Z,1003.045837
2022-07-28T11:19:40.774Z,1003.045837
2022-07-28T11:19:51.536Z,1003.045837
2022-07-28T11:20:30.197Z,1002.995239
2022-07-28T11:21:25.727Z,1003.01947
2022-07-28T11:21:39.454Z,1003.01947
2022-07-28T11:21:39.680Z,1003.01947